Time;durP1;ratioP1;P1;durP2;ratioP2;P2;SDS_P1;SDS_P2;PMS_P1;PMS_P2;Temp;Humidity;BMP_temperature;BMP_pressure;BME280_temperature;BME280_humidity;BME280_pressure;Samples;Min_cycle;Max_cycle;Signal;HPM_P1;HPM_P2
2024/01/11 00:01:18;;;;;;;24.27;15.95;;;-3274.90;92.00;;;;;;4991825;28;20023;-41
2024/01/11 00:03:46;;;;;;;23.20;15.00;;;-3275.00;92.40;;;;;;4991587;28;20034;-40
2024/01/11 00:06:13;;;;;;;23.20;15.77;;;-3275.10;92.50;;;;;;4973932;28;20157;-41
2024/01/11 00:08:40;;;;;;;27.73;18.15;;;-3275.20;92.40;;;;;;4991721;28;20485;-40
2024/01/11 00:11:06;;;;;;;27.67;17.77;;;-3275.20;92.30;;;;;;4991448;28;20095;-42
2024/01/11 00:13:33;;;;;;;27.85;16.45;;;-3275.20;92.20;;;;;;4991434;28;20023;-41
2024/01/11 00:16:00;;;;;;;20.92;14.82;;;-3275.20;92.10;;;;;;4991451;28;20033;-41
2024/01/11 00:18:27;;;;;;;24.02;15.70;;;-3275.20;92.20;;;;;;4991554;28;20022;-40
2024/01/11 00:20:54;;;;;;;25.80;17.63;;;-3275.20;92.20;;;;;;4991445;28;20426;-43
2024/01/11 00:23:21;;;;;;;23.25;15.45;;;-3275.20;92.20;;;;;;4991665;28;20129;-40
2024/01/11 00:25:47;;;;;;;26.25;17.15;;;-3275.20;92.30;;;;;;4974641;28;20031;-41
2024/01/11 00:28:17;;;;;;;24.92;16.77;;;-3275.30;92.20;;;;;;4974317;28;20113;-42
2024/01/11 00:30:43;;;;;;;22.08;15.85;;;-3275.30;92.20;;;;;;4991298;28;20038;-41
2024/01/11 00:33:10;;;;;;;25.05;17.02;;;-3275.30;92.20;;;;;;4991187;28;20041;-40
2024/01/11 00:35:36;;;;;;;23.48;16.48;;;-3275.30;92.30;;;;;;4991519;28;20018;-40
2024/01/11 00:38:03;;;;;;;28.85;18.27;;;-3275.30;92.20;;;;;;5029709;28;20115;-40
2024/01/11 00:40:30;;;;;;;23.17;16.90;;;-3275.30;92.20;;;;;;5095998;28;20039;-41
2024/01/11 00:42:56;;;;;;;24.13;16.42;;;-3275.30;92.30;;;;;;5113691;28;20467;-41
2024/01/11 00:45:23;;;;;;;23.67;16.50;;;-3275.30;92.30;;;;;;5130308;27;20376;-40
2024/01/11 00:47:50;;;;;;;22.77;15.80;;;-3275.40;92.30;;;;;;5011364;28;20167;-42
2024/01/11 00:50:16;;;;;;;22.95;16.85;;;-3275.40;92.40;;;;;;5021066;28;20570;-40
2024/01/11 00:52:43;;;;;;;24.15;15.50;;;-3275.50;92.40;;;;;;5030163;28;20043;-41
2024/01/11 00:55:10;;;;;;;24.25;17.67;;;-3275.50;92.50;;;;;;5030219;28;20025;-40
2024/01/11 00:57:37;;;;;;;24.80;18.08;;;-3275.50;92.40;;;;;;5021691;28;20057;-43
2024/01/11 01:00:05;;;;;;;23.42;17.25;;;-3275.50;92.50;;;;;;4993240;28;20135;-42
2024/01/11 01:02:31;;;;;;;27.20;18.25;;;-3275.60;92.40;;;;;;5010111;28;20034;-42
2024/01/11 01:04:57;;;;;;;23.65;15.85;;;-3275.60;92.30;;;;;;5009990;28;20472;-41
2024/01/11 01:07:24;;;;;;;26.88;17.17;;;-3275.60;92.20;;;;;;5009735;28;20052;-40
2024/01/11 01:09:51;;;;;;;32.58;19.55;;;-3275.50;92.10;;;;;;5009642;28;20447;-41
2024/01/11 01:12:18;;;;;;;25.30;16.60;;;-3275.50;92.10;;;;;;5009513;28;20030;-40
2024/01/11 01:14:44;;;;;;;29.00;19.50;;;-3275.50;92.00;;;;;;5014026;28;20024;-40
2024/01/11 01:17:11;;;;;;;30.52;20.13;;;-3275.40;91.90;;;;;;5029516;28;20036;-40
2024/01/11 01:19:42;;;;;;;35.92;20.58;;;-3275.30;91.60;;;;;;5029702;28;20116;-40
2024/01/11 01:22:07;;;;;;;33.40;21.15;;;-3275.30;91.60;;;;;;5010316;28;20109;-41
2024/01/11 01:24:34;;;;;;;32.40;20.20;;;-3275.20;91.60;;;;;;5010277;28;20121;-45
2024/01/11 01:27:00;;;;;;;33.40;20.00;;;-3275.30;91.70;;;;;;5009976;28;20053;-41
2024/01/11 01:29:27;;;;;;;36.65;21.70;;;-3275.20;91.50;;;;;;5010225;28;20033;-40
2024/01/11 01:31:57;;;;;;;33.38;20.42;;;-3275.20;91.60;;;;;;5009758;28;20033;-40
2024/01/11 01:34:24;;;;;;;35.85;21.23;;;-3275.20;91.60;;;;;;5009927;28;20093;-42
2024/01/11 01:36:52;;;;;;;35.00;21.90;;;-3275.20;91.60;;;;;;5010045;28;20030;-42
2024/01/11 01:39:19;;;;;;;34.83;21.25;;;-3275.30;91.70;;;;;;5054453;28;20049;-42
2024/01/11 01:41:46;;;;;;;35.58;21.48;;;-3275.20;91.40;;;;;;5009679;28;20065;-41
2024/01/11 01:44:13;;;;;;;36.70;22.70;;;-3275.20;91.60;;;;;;5009878;28;20429;-40
2024/01/11 01:46:39;;;;;;;36.35;22.60;;;-3275.20;91.50;;;;;;5009855;28;20116;-39
2024/01/11 01:49:07;;;;;;;38.80;21.67;;;-3275.20;91.50;;;;;;4992559;28;20041;-40
2024/01/11 01:51:33;;;;;;;36.22;23.02;;;-3275.20;91.60;;;;;;5009751;28;20026;-40
2024/01/11 01:54:05;;;;;;;38.53;22.67;;;-3275.20;91.60;;;;;;5009759;28;20029;-40
2024/01/11 01:56:36;;;;;;;37.08;21.15;;;-3275.20;91.50;;;;;;5009850;28;20052;-40
2024/01/11 01:59:06;;;;;;;37.90;23.02;;;-3275.20;91.50;;;;;;5029075;28;20026;-40
2024/01/11 02:01:33;;;;;;;36.58;21.92;;;-3275.30;91.70;;;;;;5029361;28;20037;-40
2024/01/11 02:03:59;;;;;;;36.42;22.10;;;-3275.30;91.60;;;;;;5019229;28;20121;-40
2024/01/11 02:06:30;;;;;;;36.72;23.00;;;-3275.30;91.60;;;;;;5009264;28;20122;-40
2024/01/11 02:08:57;;;;;;;40.70;22.45;;;-3275.30;91.50;;;;;;5009236;28;20117;-40
2024/01/11 02:11:24;;;;;;;38.58;23.48;;;-3275.30;91.50;;;;;;5020224;28;20036;-40
2024/01/11 02:13:50;;;;;;;38.60;23.67;;;-3275.30;91.50;;;;;;5029180;28;20403;-40
2024/01/11 02:16:16;;;;;;;40.10;23.90;;;-3275.30;91.50;;;;;;5016355;28;20509;-40
2024/01/11 02:18:43;;;;;;;38.15;23.77;;;-3275.30;91.60;;;;;;4992364;28;20122;-40
2024/01/11 02:21:14;;;;;;;38.78;23.35;;;-3275.30;91.60;;;;;;5009246;28;20057;-40
2024/01/11 02:24:07;;;;;;;40.70;24.02;;;-3275.30;91.50;;;;;;5008856;28;20045;-40
2024/01/11 02:26:34;;;;;;;35.63;21.92;;;-3275.30;91.50;;;;;;4993727;28;20041;-40
2024/01/11 02:29:01;;;;;;;45.08;24.73;;;-3275.30;91.50;;;;;;5010656;28;20102;-42
2024/01/11 02:31:28;;;;;;;44.97;24.40;;;-3275.30;91.50;;;;;;5009067;28;20021;-40
2024/01/11 02:33:56;;;;;;;36.50;23.58;;;-3275.30;91.40;;;;;;5025667;28;20026;-41
2024/01/11 02:36:23;;;;;;;39.13;22.77;;;-3275.30;91.60;;;;;;5028385;28;20018;-40
2024/01/11 02:38:51;;;;;;;38.88;23.38;;;-3275.30;91.50;;;;;;5082663;28;20027;-40
2024/01/11 02:41:18;;;;;;;45.97;26.60;;;-3275.30;91.50;;;;;;5132601;28;20027;-40
2024/01/11 02:43:48;;;;;;;41.60;24.55;;;-3275.30;91.40;;;;;;5027190;28;20045;-41
2024/01/11 02:46:19;;;;;;;36.28;22.10;;;-3275.30;91.50;;;;;;5028989;28;20129;-40
2024/01/11 02:48:46;;;;;;;39.25;22.48;;;-3275.30;91.60;;;;;;5029019;28;20053;-41
2024/01/11 02:51:13;;;;;;;39.30;22.75;;;-3275.40;91.70;;;;;;5016524;28;20037;-40
2024/01/11 02:53:39;;;;;;;43.47;25.58;;;-3275.40;91.60;;;;;;5008996;28;20026;-40
2024/01/11 02:56:08;;;;;;;39.72;24.17;;;-3275.40;91.50;;;;;;5008892;28;20030;-39
2024/01/11 02:58:35;;;;;;;38.75;25.08;;;-3275.40;91.50;;;;;;5009133;28;20030;-40
2024/01/11 03:01:03;;;;;;;45.17;24.67;;;-3275.40;91.50;;;;;;5008858;28;20030;-40
2024/01/11 03:03:30;;;;;;;37.25;23.73;;;-3275.40;91.40;;;;;;5008886;28;20025;-40
2024/01/11 03:05:56;;;;;;;38.30;23.55;;;-3275.40;91.50;;;;;;5008681;28;20463;-40
2024/01/11 03:08:23;;;;;;;38.90;23.00;;;-3275.40;91.50;;;;;;5008766;28;20406;-39
2024/01/11 03:10:52;;;;;;;38.00;22.70;;;-3275.40;91.40;;;;;;4991395;28;20309;-39
2024/01/11 03:13:19;;;;;;;46.00;26.30;;;-3275.40;91.50;;;;;;5008779;28;20120;-40
2024/01/11 03:15:44;;;;;;;37.03;22.33;;;-3275.40;91.40;;;;;;5008601;28;20403;-39
2024/01/11 03:18:11;;;;;;;35.72;21.55;;;-3275.40;91.50;;;;;;5008856;28;20037;-40
2024/01/11 03:20:41;;;;;;;43.85;26.70;;;-3275.40;91.50;;;;;;5008740;28;20037;-39
2024/01/11 03:23:08;;;;;;;42.17;25.08;;;-3275.40;91.40;;;;;;5012212;28;20037;-40
2024/01/11 03:25:37;;;;;;;42.80;27.02;;;-3275.40;91.60;;;;;;5011802;28;20033;-40
2024/01/11 03:28:06;;;;;;;40.28;24.13;;;-3275.40;91.60;;;;;;5012262;28;20065;-41
2024/01/11 03:30:33;;;;;;;40.58;24.83;;;-3275.50;91.70;;;;;;5011969;28;20042;-40
2024/01/11 03:32:58;;;;;;;42.63;25.85;;;-3275.50;91.80;;;;;;5011767;28;20022;-42
2024/01/11 03:35:26;;;;;;;43.58;25.55;;;-3275.50;91.80;;;;;;5011799;28;20041;-39
2024/01/11 03:37:53;;;;;;;42.10;24.75;;;-3275.50;91.50;;;;;;5027329;27;20022;-40
2024/01/11 03:40:20;;;;;;;42.20;24.27;;;-3275.50;91.60;;;;;;5135853;27;20382;-40
2024/01/11 03:42:46;;;;;;;41.42;24.50;;;-3275.50;91.60;;;;;;5117511;27;20317;-39
2024/01/11 03:45:15;;;;;;;42.80;25.10;;;-3275.60;91.70;;;;;;5135620;27;20062;-41
2024/01/11 03:47:44;;;;;;;41.92;26.02;;;-3275.50;91.70;;;;;;5080154;27;20037;-40
2024/01/11 03:50:10;;;;;;;40.42;25.23;;;-3275.60;91.80;;;;;;5013584;28;20120;-39
2024/01/11 03:52:39;;;;;;;38.58;22.85;;;-3275.60;91.60;;;;;;5000137;28;20511;-39
2024/01/11 03:55:06;;;;;;;40.60;23.27;;;-3275.60;91.70;;;;;;5011461;28;20825;-41
2024/01/11 03:57:33;;;;;;;39.40;22.95;;;-3275.60;91.80;;;;;;5011376;28;20037;-39
2024/01/11 04:00:00;;;;;;;37.97;23.33;;;-3275.60;91.90;;;;;;5011334;28;20038;-40
2024/01/11 04:02:29;;;;;;;39.75;24.25;;;-3275.60;91.80;;;;;;5011426;28;20054;-40
2024/01/11 04:04:56;;;;;;;39.28;23.30;;;-3275.70;92.00;;;;;;5011835;28;20495;-40
2024/01/11 04:07:23;;;;;;;39.92;24.00;;;-3275.80;92.00;;;;;;5021330;28;20065;-40
2024/01/11 04:09:49;;;;;;;37.75;24.10;;;-3275.80;91.90;;;;;;5031126;28;20512;-40
2024/01/11 04:12:16;;;;;;;39.33;24.33;;;-3275.80;91.90;;;;;;5030802;28;20450;-40
2024/01/11 04:14:46;;;;;;;39.30;24.00;;;-3275.80;91.80;;;;;;5015067;28;20393;-40
2024/01/11 04:17:13;;;;;;;38.38;25.40;;;-3275.80;91.80;;;;;;5011533;28;20030;-40
2024/01/11 04:19:41;;;;;;;39.97;23.75;;;-3275.80;91.80;;;;;;5011371;28;20039;-40
2024/01/11 04:22:08;;;;;;;35.55;23.45;;;-3275.90;91.90;;;;;;5011171;28;20026;-40
2024/01/11 04:24:35;;;;;;;42.45;25.58;;;-3275.90;91.90;;;;;;5010969;28;20105;-39
2024/01/11 04:27:03;;;;;;;40.95;26.55;;;-3275.90;91.90;;;;;;5011100;28;20044;-40
2024/01/11 04:29:30;;;;;;;41.50;27.02;;;-3275.90;91.90;;;;;;5011057;28;20030;-40
2024/01/11 04:31:58;;;;;;;42.92;26.08;;;-3276.00;91.90;;;;;;5011113;28;20040;-39
2024/01/11 04:34:24;;;;;;;42.33;27.17;;;-3276.00;91.90;;;;;;5010176;28;20018;-40
2024/01/11 04:36:51;;;;;;;37.78;24.63;;;-3276.00;91.80;;;;;;4993994;28;20022;-41
2024/01/11 04:39:18;;;;;;;39.33;23.20;;;-3275.90;91.80;;;;;;5098741;27;20080;-40
2024/01/11 04:41:44;;;;;;;41.33;24.48;;;-3275.90;91.80;;;;;;5134246;27;20110;-40
2024/01/11 04:44:10;;;;;;;39.40;24.27;;;-3276.00;91.80;;;;;;5063307;27;20133;-39
2024/01/11 04:46:37;;;;;;;41.03;25.35;;;-3276.00;91.90;;;;;;5029905;28;20084;-39
2024/01/11 04:49:02;;;;;;;40.28;25.13;;;-3276.00;91.90;;;;;;5014752;28;20038;-40
2024/01/11 04:51:30;;;;;;;39.45;24.20;;;-3276.00;92.00;;;;;;5010050;28;20022;-40
2024/01/11 04:53:56;;;;;;;41.25;24.50;;;-3276.00;92.00;;;;;;5010192;28;20081;-40
2024/01/11 04:56:23;;;;;;;40.30;24.92;;;-3276.10;92.00;;;;;;5011839;28;20105;-41
2024/01/11 04:58:48;;;;;;;43.15;24.75;;;-3276.10;92.00;;;;;;5030293;28;20121;-41
2024/01/11 05:01:33;;;;;;;39.20;25.13;;;-3276.00;91.90;;;;;;5029717;28;20474;-40
2024/01/11 05:03:58;;;;;;;38.78;23.65;;;-3276.10;92.10;;;;;;5030075;28;20029;-40
2024/01/11 05:06:25;;;;;;;41.40;23.58;;;-3276.10;92.10;;;;;;5013252;28;20463;-41
2024/01/11 05:08:55;;;;;;;38.90;23.90;;;-3276.10;92.10;;;;;;5010444;28;20026;-40
2024/01/11 05:11:24;;;;;;;36.08;22.30;;;-3276.10;92.20;;;;;;5010313;28;20064;-40
2024/01/11 05:13:52;;;;;;;43.50;26.77;;;-3276.10;92.20;;;;;;5017202;28;20530;-40
2024/01/11 05:16:28;;;;;;;41.13;25.38;;;-3276.10;92.30;;;;;;5030001;28;20075;-40
2024/01/11 05:18:58;;;;;;;43.00;25.90;;;-3276.20;92.40;;;;;;5010033;28;20030;-40
2024/01/11 05:21:25;;;;;;;46.15;25.52;;;-3276.20;92.50;;;;;;5010098;28;20545;-40
2024/01/11 05:23:54;;;;;;;37.97;24.55;;;-3276.20;92.60;;;;;;5010085;28;20037;-40
2024/01/11 05:26:21;;;;;;;37.63;22.48;;;-3276.20;92.60;;;;;;5014320;28;20029;-40
2024/01/11 05:28:48;;;;;;;34.58;20.65;;;-3276.20;92.60;;;;;;5029794;28;20343;-40
2024/01/11 05:31:18;;;;;;;36.33;22.65;;;-3276.30;92.70;;;;;;5029622;28;20053;-40
2024/01/11 05:33:46;;;;;;;35.03;22.63;;;-3276.30;92.70;;;;;;5029698;28;20350;-42
2024/01/11 05:36:13;;;;;;;32.58;19.08;;;-3276.30;92.80;;;;;;5018857;28;20515;-40
2024/01/11 05:38:40;;;;;;;32.90;21.23;;;-3276.30;92.80;;;;;;5065633;27;20024;-41
2024/01/11 05:41:08;;;;;;;36.97;22.20;;;-3276.40;92.80;;;;;;5041737;27;20109;-41
2024/01/11 05:43:34;;;;;;;34.78;21.92;;;-3276.40;92.90;;;;;;5009742;28;20030;-41
2024/01/11 05:46:01;;;;;;;35.25;20.50;;;-3276.40;92.90;;;;;;5009727;28;20482;-40
2024/01/11 05:48:28;;;;;;;36.15;22.15;;;-3276.40;92.80;;;;;;5010346;28;20029;-40
2024/01/11 05:50:54;;;;;;;38.38;23.13;;;-3276.50;92.90;;;;;;5027569;28;20025;-40
2024/01/11 05:53:22;;;;;;;39.47;20.55;;;-3276.50;92.90;;;;;;5029638;28;20021;-40
2024/01/11 05:55:51;;;;;;;34.97;21.48;;;-3276.50;92.90;;;;;;5023883;28;20101;-39
2024/01/11 05:58:18;;;;;;;36.10;23.55;;;-3276.50;93.00;;;;;;5009813;28;20471;-41
2024/01/11 06:00:46;;;;;;;39.10;23.88;;;-3276.50;93.00;;;;;;5009674;28;20041;-40
2024/01/11 06:03:13;;;;;;;42.97;26.90;;;-3276.50;93.00;;;;;;5009744;28;20058;-40
2024/01/11 06:05:40;;;;;;;38.15;24.30;;;-3276.60;92.90;;;;;;5009692;28;20041;-40
2024/01/11 06:08:07;;;;;;;33.10;22.05;;;-3276.60;93.00;;;;;;4992358;28;20056;-40
2024/01/11 06:10:34;;;;;;;36.22;23.13;;;-3276.60;93.10;;;;;;5009268;28;20029;-40
2024/01/11 06:12:59;;;;;;;35.88;20.77;;;-3276.70;93.10;;;;;;4992133;28;20022;-40
2024/01/11 06:15:26;;;;;;;36.25;21.10;;;-3276.60;93.00;;;;;;5009587;28;20033;-39
2024/01/11 06:17:53;;;;;;;35.45;22.48;;;-3276.70;93.10;;;;;;4992134;28;20037;-40
2024/01/11 06:20:20;;;;;;;30.63;20.83;;;-3276.70;93.20;;;;;;5009309;28;20034;-40
2024/01/11 06:22:47;;;;;;;31.13;20.33;;;-3276.70;93.20;;;;;;5009838;28;20025;-40
2024/01/11 06:25:13;;;;;;;31.73;19.95;;;0.00;93.20;;;;;;5009435;28;20593;-40
2024/01/11 06:27:43;;;;;;;33.60;19.85;;;0.00;93.20;;;;;;5009158;28;20042;-40
2024/01/11 06:30:11;;;;;;;31.17;18.90;;;0.00;93.20;;;;;;5009562;28;20071;-40
2024/01/11 06:32:40;;;;;;;33.20;18.98;;;0.00;93.10;;;;;;5009197;28;20018;-40
2024/01/11 06:35:07;;;;;;;27.40;17.33;;;0.00;93.20;;;;;;5009343;28;20029;-40
2024/01/11 06:37:34;;;;;;;27.35;17.42;;;0.00;93.30;;;;;;5009315;28;20312;-40
2024/01/11 06:40:03;;;;;;;29.25;17.52;;;0.00;93.40;;;;;;5009095;28;20102;-40
2024/01/11 06:42:31;;;;;;;24.70;14.70;;;0.00;93.40;;;;;;5009164;28;20022;-40
2024/01/11 06:44:58;;;;;;;26.17;15.88;;;0.00;93.40;;;;;;5008648;28;20057;-40
2024/01/11 06:47:25;;;;;;;27.92;16.98;;;0.00;93.50;;;;;;5009179;28;20083;-40
2024/01/11 06:49:53;;;;;;;24.75;15.25;;;0.00;93.50;;;;;;5008914;28;20358;-40
2024/01/11 06:52:19;;;;;;;26.02;15.80;;;0.00;93.50;;;;;;5008985;28;20031;-42
2024/01/11 06:54:45;;;;;;;24.75;15.85;;;0.00;93.60;;;;;;5008944;28;20078;-40
2024/01/11 06:57:11;;;;;;;26.55;15.70;;;0.10;93.60;;;;;;5030682;28;20030;-40
2024/01/11 06:59:38;;;;;;;27.38;16.65;;;0.10;93.60;;;;;;5014426;28;20026;-40
2024/01/11 07:02:05;;;;;;;26.67;16.63;;;0.10;93.60;;;;;;5032137;28;20029;-40
2024/01/11 07:04:32;;;;;;;23.58;15.45;;;0.10;93.60;;;;;;5011015;28;20064;-40
2024/01/11 07:06:59;;;;;;;26.05;16.58;;;0.20;93.60;;;;;;5012395;28;20050;-40
2024/01/11 07:09:26;;;;;;;27.67;17.17;;;0.20;93.70;;;;;;5011933;28;20044;-40
2024/01/11 07:11:52;;;;;;;29.63;18.45;;;0.20;93.70;;;;;;5011940;28;20040;-42
2024/01/11 07:14:20;;;;;;;25.83;15.25;;;0.20;93.80;;;;;;5012074;28;20053;-39
2024/01/11 07:16:47;;;;;;;28.58;16.23;;;0.20;93.80;;;;;;5012097;28;20033;-40
2024/01/11 07:19:13;;;;;;;27.15;16.40;;;0.30;93.90;;;;;;5011977;28;20050;-40
2024/01/11 07:21:39;;;;;;;26.50;16.00;;;0.20;93.90;;;;;;5011803;28;20056;-41
2024/01/11 07:24:06;;;;;;;28.20;15.95;;;0.30;94.00;;;;;;5012029;28;20105;-40
2024/01/11 07:26:32;;;;;;;26.63;15.02;;;0.30;94.10;;;;;;5012125;28;20025;-41
2024/01/11 07:28:59;;;;;;;25.25;14.77;;;0.30;94.10;;;;;;5023435;28;20022;-39
2024/01/11 07:31:26;;;;;;;27.38;15.77;;;0.40;94.10;;;;;;5031342;28;20038;-40
2024/01/11 07:33:53;;;;;;;25.38;15.35;;;0.40;94.10;;;;;;5031472;28;20022;-41
2024/01/11 07:36:24;;;;;;;25.70;14.75;;;0.40;94.20;;;;;;5010104;28;20059;-41
2024/01/11 07:38:51;;;;;;;27.33;15.18;;;0.40;94.20;;;;;;5077642;27;20019;-40
2024/01/11 07:41:18;;;;;;;25.10;14.68;;;0.50;94.30;;;;;;5127023;27;20039;-40
2024/01/11 07:43:44;;;;;;;22.45;15.70;;;0.50;94.30;;;;;;5011433;28;20445;-39
2024/01/11 07:46:10;;;;;;;24.83;15.85;;;0.50;94.30;;;;;;5011460;28;20037;-40
2024/01/11 07:48:37;;;;;;;26.30;16.20;;;0.50;94.30;;;;;;5011624;28;20499;-40
2024/01/11 07:51:04;;;;;;;26.88;14.95;;;0.50;94.30;;;;;;5011660;28;20026;-40
2024/01/11 07:53:34;;;;;;;24.33;13.20;;;0.50;94.30;;;;;;5021184;28;20365;-39
2024/01/11 07:56:03;;;;;;;22.33;14.15;;;0.50;94.40;;;;;;5013652;28;20036;-40
2024/01/11 07:58:32;;;;;;;24.13;12.73;;;0.50;94.40;;;;;;5022278;28;20483;-42
2024/01/11 08:01:02;;;;;;;20.48;11.35;;;0.60;94.40;;;;;;5011513;28;20168;-40
2024/01/11 08:03:29;;;;;;;18.40;10.77;;;0.60;94.50;;;;;;5011221;28;20048;-40
2024/01/11 08:05:56;;;;;;;20.45;11.88;;;0.70;94.40;;;;;;5010924;28;20026;-39
2024/01/11 08:08:24;;;;;;;20.17;11.65;;;0.70;94.50;;;;;;4992245;28;20026;-41
2024/01/11 08:10:49;;;;;;;19.42;12.32;;;0.70;94.50;;;;;;5018790;28;20029;-40
2024/01/11 08:13:17;;;;;;;22.63;14.60;;;0.70;94.50;;;;;;5030184;28;20039;-40
2024/01/11 08:15:44;;;;;;;20.83;13.00;;;0.70;94.50;;;;;;5030110;28;20018;-40
2024/01/11 08:18:09;;;;;;;21.15;13.32;;;0.70;94.50;;;;;;5020117;28;20030;-40
2024/01/11 08:20:38;;;;;;;19.92;12.13;;;0.70;94.50;;;;;;5011132;28;20117;-39
2024/01/11 08:23:06;;;;;;;19.70;10.35;;;0.80;94.50;;;;;;5011650;28;20034;-40
2024/01/11 08:25:32;;;;;;;17.08;10.60;;;0.80;94.50;;;;;;5011415;28;20037;-39
2024/01/11 08:28:02;;;;;;;22.92;12.43;;;0.90;94.50;;;;;;5011248;28;20071;-40
2024/01/11 08:30:29;;;;;;;18.17;11.75;;;0.80;94.50;;;;;;5011220;28;20026;-39
2024/01/11 08:32:55;;;;;;;17.35;10.88;;;0.90;94.50;;;;;;5010894;28;20045;-39
2024/01/11 08:35:22;;;;;;;16.17;10.07;;;0.90;94.50;;;;;;5011211;28;20032;-40
2024/01/11 08:37:49;;;;;;;18.55;10.88;;;0.90;94.60;;;;;;5023606;27;20018;-40
2024/01/11 08:40:17;;;;;;;19.50;11.25;;;1.00;94.50;;;;;;5135003;27;20023;-40
2024/01/11 08:42:47;;;;;;;16.27;10.98;;;1.00;94.60;;;;;;5135035;27;20031;-40
2024/01/11 08:45:17;;;;;;;18.02;10.40;;;1.00;94.60;;;;;;5054106;27;20515;-40
2024/01/11 08:47:45;;;;;;;18.55;11.20;;;1.00;94.60;;;;;;5010934;28;20453;-40
2024/01/11 08:50:15;;;;;;;17.08;10.77;;;1.10;94.60;;;;;;5010760;28;20449;-39
2024/01/11 08:52:42;;;;;;;18.20;11.32;;;1.10;94.60;;;;;;5010932;28;20475;-40
2024/01/11 08:55:08;;;;;;;16.00;10.48;;;1.10;94.60;;;;;;5010804;28;20030;-40
2024/01/11 08:57:35;;;;;;;18.58;11.70;;;1.10;94.60;;;;;;5010589;28;20030;-41
2024/01/11 09:00:06;;;;;;;16.02;9.43;;;1.10;94.50;;;;;;5010640;28;20113;-40
2024/01/11 09:02:33;;;;;;;17.17;10.20;;;1.20;94.60;;;;;;5010750;28;20025;-40
2024/01/11 09:04:58;;;;;;;13.55;9.77;;;1.20;94.60;;;;;;5010643;28;20026;-40
2024/01/11 09:07:25;;;;;;;19.02;11.35;;;1.20;94.50;;;;;;5010719;28;20148;-40
2024/01/11 09:09:54;;;;;;;17.58;10.15;;;1.20;94.50;;;;;;5010175;28;20788;-40
2024/01/11 09:12:22;;;;;;;19.92;11.20;;;1.20;94.50;;;;;;5010641;28;20470;-41
2024/01/11 09:14:49;;;;;;;19.85;11.85;;;1.20;94.50;;;;;;5010456;28;20026;-42
2024/01/11 09:17:15;;;;;;;18.30;11.60;;;1.20;94.40;;;;;;5010423;28;20034;-41
2024/01/11 09:19:41;;;;;;;20.10;11.52;;;1.20;94.40;;;;;;4992480;28;20048;-42
2024/01/11 09:22:12;;;;;;;19.08;11.23;;;1.20;94.40;;;;;;4993185;28;20382;-42
2024/01/11 09:24:39;;;;;;;19.73;11.88;;;1.20;94.40;;;;;;4992904;28;20037;-43
2024/01/11 09:27:07;;;;;;;21.08;12.45;;;1.20;94.40;;;;;;5010574;28;20025;-43
2024/01/11 09:29:35;;;;;;;21.98;13.27;;;1.10;94.40;;;;;;4992928;28;20116;-43
2024/01/11 09:32:02;;;;;;;20.73;13.60;;;1.20;94.40;;;;;;5010142;28;20021;-43
2024/01/11 09:34:29;;;;;;;20.48;12.30;;;1.20;94.40;;;;;;5010254;28;20026;-45
2024/01/11 09:36:58;;;;;;;18.13;12.35;;;1.20;94.40;;;;;;5010240;28;20038;-44
2024/01/11 09:39:26;;;;;;;23.20;13.13;;;1.20;94.50;;;;;;5104724;27;20332;-45
2024/01/11 09:42:10;;;;;;;24.63;13.57;;;1.20;94.40;;;;;;5027908;27;20104;-45
2024/01/11 09:44:38;;;;;;;19.58;12.93;;;1.20;94.40;;;;;;5009705;28;20162;-47
2024/01/11 09:47:07;;;;;;;25.15;14.65;;;1.20;94.40;;;;;;5009951;28;20076;-49
2024/01/11 09:49:35;;;;;;;51.58;24.10;;;1.20;94.50;;;;;;5009754;28;20063;-50
2024/01/11 09:52:03;;;;;;;33.35;18.25;;;1.20;94.50;;;;;;5009760;28;20041;-51
2024/01/11 09:54:32;;;;;;;22.45;13.52;;;1.20;94.50;;;;;;5009141;28;20041;-49
2024/01/11 09:57:00;;;;;;;19.77;12.68;;;1.20;94.50;;;;;;5009847;28;20056;-53
2024/01/11 09:59:28;;;;;;;20.90;12.55;;;1.20;94.50;;;;;;5009755;28;20037;-55
2024/01/11 10:01:54;;;;;;;17.27;11.43;;;1.30;94.50;;;;;;5029091;28;20037;-58
2024/01/11 10:04:25;;;;;;;20.85;12.90;;;1.30;94.60;;;;;;5029761;28;20022;-58
2024/01/11 10:06:53;;;;;;;19.95;12.80;;;1.40;94.60;;;;;;5017593;28;20347;-59
2024/01/11 10:09:19;;;;;;;26.70;15.30;;;1.40;94.60;;;;;;5009588;28;20090;-60
2024/01/11 10:11:50;;;;;;;20.45;14.73;;;1.50;94.60;;;;;;4991685;28;20375;-59
2024/01/11 10:14:18;;;;;;;23.88;15.77;;;1.50;94.60;;;;;;5020756;28;20053;-58
2024/01/11 10:16:45;;;;;;;22.35;15.75;;;1.50;94.60;;;;;;5029066;28;20028;-58
2024/01/11 10:19:15;;;;;;;21.50;15.23;;;1.50;94.60;;;;;;5029489;28;20037;-57
2024/01/11 10:21:42;;;;;;;24.63;15.50;;;1.50;94.60;;;;;;5022051;28;20022;-58
2024/01/11 10:24:09;;;;;;;20.50;14.98;;;1.60;94.60;;;;;;5009961;28;20030;-59
2024/01/11 10:26:36;;;;;;;20.60;13.88;;;1.60;94.60;;;;;;5009449;28;20022;-57
2024/01/11 10:29:05;;;;;;;21.58;14.85;;;1.70;94.60;;;;;;4992439;28;20022;-56
2024/01/11 10:31:34;;;;;;;19.52;13.95;;;1.60;94.50;;;;;;5010647;28;20030;-57
2024/01/11 10:34:01;;;;;;;24.65;14.82;;;1.70;94.60;;;;;;5013136;28;20030;-59
2024/01/11 10:36:31;;;;;;;22.42;14.10;;;1.70;94.60;;;;;;5021881;28;20064;-56
2024/01/11 10:39:04;;;;;;;18.52;13.02;;;1.70;94.50;;;;;;5093032;27;20500;-58
2024/01/11 10:41:40;;;;;;;24.02;12.82;;;1.70;94.40;;;;;;5102437;27;20050;-59
2024/01/11 10:44:21;;;;;;;23.50;12.68;;;1.70;94.40;;;;;;5024105;28;20472;-60
2024/01/11 10:46:50;;;;;;;23.08;12.52;;;1.80;94.40;;;;;;4993366;28;20026;-60
2024/01/11 10:49:19;;;;;;;19.65;12.45;;;1.70;94.40;;;;;;4993152;28;20022;-60
2024/01/11 10:52:20;;;;;;;20.60;14.05;;;1.70;94.40;;;;;;5002651;28;20022;-61
2024/01/11 10:54:48;;;;;;;20.90;14.13;;;1.80;94.40;;;;;;5012946;28;20038;-61
2024/01/11 10:57:16;;;;;;;23.13;14.43;;;1.70;94.40;;;;;;5011345;28;20032;-62
2024/01/11 10:59:45;;;;;;;19.65;12.38;;;1.70;94.30;;;;;;5060737;28;20471;-63
2024/01/11 11:02:14;;;;;;;21.35;14.68;;;1.80;94.40;;;;;;4993163;28;20038;-63
2024/01/11 11:04:42;;;;;;;24.42;13.07;;;1.80;94.40;;;;;;4993109;28;20508;-63
2024/01/11 11:07:10;;;;;;;21.65;11.90;;;1.80;94.30;;;;;;4996468;28;20435;-63
2024/01/11 11:09:38;;;;;;;16.98;11.10;;;1.80;94.40;;;;;;5012489;28;20079;-63
2024/01/11 11:12:11;;;;;;;17.45;11.02;;;1.90;94.40;;;;;;4995990;28;20109;-63
2024/01/11 11:14:40;;;;;;;17.13;10.95;;;1.80;94.30;;;;;;4992965;28;20117;-63
2024/01/11 11:17:08;;;;;;;19.50;10.52;;;1.90;94.30;;;;;;4993009;28;20084;-63
2024/01/11 11:19:36;;;;;;;20.33;10.85;;;1.80;94.30;;;;;;4992891;28;20101;-63
2024/01/11 11:22:06;;;;;;;18.67;12.02;;;1.90;94.40;;;;;;4992632;28;20080;-62
2024/01/11 11:24:35;;;;;;;19.65;12.70;;;1.90;94.40;;;;;;4992621;28;20119;-62
2024/01/11 11:27:03;;;;;;;23.63;13.38;;;1.90;94.40;;;;;;4993550;28;20059;-62
2024/01/11 11:29:30;;;;;;;22.58;13.25;;;1.90;94.30;;;;;;5012337;28;20292;-62
2024/01/11 11:31:57;;;;;;;24.17;12.70;;;1.90;94.40;;;;;;5000075;28;20113;-61
2024/01/11 11:34:59;;;;;;;18.88;12.07;;;1.90;94.40;;;;;;4992142;28;20030;-60
2024/01/11 11:37:26;;;;;;;21.98;11.82;;;1.90;94.40;;;;;;5003729;28;20048;-60
2024/01/11 11:39:53;;;;;;;16.92;10.05;;;1.90;94.40;;;;;;5010655;28;20033;-58
2024/01/11 11:42:22;;;;;;;17.08;10.40;;;1.90;94.40;;;;;;5011421;28;20041;-59
2024/01/11 11:44:50;;;;;;;23.23;11.13;;;1.90;94.40;;;;;;5010152;28;20065;-58
2024/01/11 11:47:22;;;;;;;21.05;10.88;;;1.90;94.40;;;;;;4991533;28;20042;-59
2024/01/11 11:50:07;;;;;;;19.35;11.48;;;1.90;94.40;;;;;;4991592;28;20038;-59
2024/01/11 11:52:36;;;;;;;20.42;10.68;;;1.90;94.50;;;;;;4991673;28;20050;-59
2024/01/11 11:55:06;;;;;;;24.03;12.30;;;1.90;94.40;;;;;;4991082;28;20034;-56
2024/01/11 11:57:33;;;;;;;25.45;15.45;;;1.90;94.40;;;;;;4973952;28;21156;-55
2024/01/11 12:00:05;;;;;;;27.23;16.55;;;1.90;94.50;;;;;;4991152;28;20474;-56
2024/01/11 12:02:32;;;;;;;23.55;13.80;;;1.90;94.50;;;;;;4991408;28;20397;-52
2024/01/11 12:04:59;;;;;;;21.27;13.38;;;1.90;94.50;;;;;;4973867;28;20122;-55
2024/01/11 12:07:25;;;;;;;23.02;13.73;;;1.90;94.50;;;;;;4991223;28;20041;-51
2024/01/11 12:09:53;;;;;;;21.98;14.02;;;1.90;94.50;;;;;;4991182;28;20362;-52
2024/01/11 12:12:21;;;;;;;25.10;14.68;;;1.90;94.60;;;;;;4991323;28;20209;-52
2024/01/11 12:14:49;;;;;;;21.02;12.05;;;2.00;94.60;;;;;;4991071;28;20447;-53
2024/01/11 12:17:16;;;;;;;23.80;14.77;;;2.00;94.60;;;;;;4991265;28;20069;-52
2024/01/11 12:19:42;;;;;;;23.63;13.38;;;2.00;94.60;;;;;;4991474;28;20090;-52